createdAt,value
2023-04-25T00:01:43.542Z,99322.61
2023-04-25T00:05:12.592Z,99321.82
2023-04-25T00:08:41.371Z,99318.84
2023-04-25T00:12:11.021Z,99316.91
2023-04-25T00:15:40.723Z,99315.77
2023-04-25T00:19:07.732Z,99313.01
2023-04-25T00:22:38.569Z,99312.69
2023-04-25T00:26:07.918Z,99316.67
2023-04-25T00:29:34.869Z,99315.02
2023-04-25T00:33:01.922Z,99314.80
2023-04-25T00:36:29.323Z,99318.73
2023-04-25T00:39:58.328Z,99321.77
2023-04-25T00:43:25.987Z,99322.72
2023-04-25T00:46:54.767Z,99322.98
2023-04-25T00:50:21.519Z,99323.79
2023-04-25T00:53:50.617Z,99328.51
2023-04-25T00:57:18.159Z,99330.52
2023-04-25T01:00:51.416Z,99332.02
2023-04-25T01:04:18.734Z,99339.76
2023-04-25T01:07:46.307Z,99340.80
2023-04-25T01:11:13.167Z,99336.81
2023-04-25T01:14:40.280Z,99338.55
2023-04-25T01:18:07.762Z,99336.26
2023-04-25T01:21:34.790Z,99338.73
2023-04-25T01:25:02.260Z,99339.66
2023-04-25T01:28:31.639Z,99336.03
2023-04-25T01:31:59.904Z,99336.05
2023-04-25T01:35:27.257Z,99337.59
2023-04-25T01:38:54.874Z,99338.69
2023-04-25T01:42:22.853Z,99341.02
2023-04-25T01:45:51.661Z,99343.24
2023-04-25T01:49:18.914Z,99340.29
2023-04-25T01:52:45.359Z,99342.24
2023-04-25T01:56:13.064Z,99345.20
2023-04-25T01:59:40.431Z,99344.39
2023-04-25T02:03:21.477Z,99350.00
2023-04-25T02:06:49.450Z,99353.35
2023-04-25T02:10:17.266Z,99351.70
2023-04-25T02:13:56.122Z,99353.70
2023-04-25T02:17:37.856Z,99353.74
2023-04-25T02:21:05.837Z,99359.65
2023-04-25T02:24:34.899Z,99364.52
2023-04-25T02:28:01.512Z,99362.91
2023-04-25T02:31:31.243Z,99358.42
2023-04-25T02:35:04.899Z,99359.79
2023-04-25T02:38:32.791Z,99363.27
2023-04-25T02:41:59.798Z,99359.95
2023-04-25T02:45:28.914Z,99361.30
2023-04-25T02:48:57.161Z,99362.16
2023-04-25T02:52:23.972Z,99358.01
2023-04-25T02:56:01.895Z,99363.52
2023-04-25T02:59:29.328Z,99369.52
2023-04-25T03:02:59.228Z,99365.84
2023-04-25T03:06:26.108Z,99366.39
2023-04-25T03:09:53.598Z,99369.21
2023-04-25T03:13:21.106Z,99363.45
2023-04-25T03:16:48.012Z,99364.16
2023-04-25T03:20:20.344Z,99366.87
2023-04-25T03:23:47.840Z,99368.84
2023-04-25T03:27:15.868Z,99371.92
2023-04-25T03:30:49.500Z,99374.42
2023-04-25T03:34:16.600Z,99380.66
2023-04-25T03:37:46.750Z,99379.30
2023-04-25T03:41:21.041Z,99380.65
2023-04-25T03:45:02.192Z,99383.27
2023-04-25T03:48:31.484Z,99388.55
2023-04-25T03:51:59.697Z,99391.44
2023-04-25T03:55:28.898Z,99395.17
2023-04-25T03:58:57.882Z,99396.35
2023-04-25T04:02:27.549Z,99402.64
2023-04-25T04:05:56.255Z,99407.83
2023-04-25T04:09:23.395Z,99412.76
2023-04-25T04:12:50.501Z,99415.27
2023-04-25T04:16:21.399Z,99415.43
2023-04-25T04:19:49.219Z,99419.92
2023-04-25T04:23:19.690Z,99424.09
2023-04-25T04:26:47.561Z,99430.95
2023-04-25T04:30:44.693Z,99435.14
2023-04-25T04:34:13.993Z,99436.52
2023-04-25T04:37:43.539Z,99443.87
2023-04-25T04:41:20.947Z,99441.95
2023-04-25T04:45:05.317Z,99440.49
2023-04-25T04:48:55.080Z,99445.54
2023-04-25T04:52:39.011Z,99444.62
2023-04-25T04:56:29.482Z,99445.42
2023-04-25T05:00:19.980Z,99443.50
2023-04-25T05:04:08.720Z,99447.52
2023-04-25T05:07:54.844Z,99448.02
2023-04-25T05:11:34.288Z,99452.13
2023-04-25T05:15:39.637Z,99455.11
2023-04-25T05:19:21.134Z,99452.86
2023-04-25T05:22:52.242Z,99451.81
2023-04-25T05:26:32.207Z,99452.61
2023-04-25T05:30:11.948Z,99459.71
2023-04-25T05:34:11.220Z,99459.09
2023-04-25T05:37:54.083Z,99456.54
2023-04-25T05:41:31.097Z,99462.20
2023-04-25T05:45:03.324Z,99461.57
2023-04-25T05:48:36.133Z,99463.21
2023-04-25T05:52:26.177Z,99467.63
2023-04-25T05:56:22.506Z,99466.04
2023-04-25T05:59:52.134Z,99467.09
2023-04-25T06:03:20.893Z,99470.26
2023-04-25T06:06:48.844Z,99471.16
2023-04-25T06:10:16.377Z,99471.68
2023-04-25T06:13:44.084Z,99469.02
2023-04-25T06:17:11.905Z,99467.02
2023-04-25T06:20:38.533Z,99467.97
2023-04-25T06:24:06.077Z,99473.52
2023-04-25T06:27:32.699Z,99474.41
2023-04-25T06:31:00.807Z,99472.14
2023-04-25T06:34:28.288Z,99474.01
2023-04-25T06:37:56.741Z,99474.36
2023-04-25T06:41:27.455Z,99472.08
2023-04-25T06:44:58.487Z,99470.89
2023-04-25T06:48:25.388Z,99472.66
2023-04-25T06:51:53.327Z,99470.79
2023-04-25T06:55:21.192Z,99465.36
2023-04-25T06:59:02.724Z,99466.46
2023-04-25T07:02:35.864Z,99463.80
2023-04-25T07:06:03.875Z,99462.55
2023-04-25T07:09:35.179Z,99463.16
2023-04-25T07:13:01.959Z,99464.28
2023-04-25T07:16:29.050Z,99461.77
2023-04-25T07:19:56.297Z,99462.63
2023-04-25T07:23:23.154Z,99466.48
2023-04-25T07:26:51.339Z,99468.77
2023-04-25T07:30:28.729Z,99475.95
2023-04-25T07:33:57.050Z,99480.52
2023-04-25T07:37:24.310Z,99472.80
2023-04-25T07:41:04.561Z,99477.59
2023-04-25T07:44:32.050Z,99476.29
2023-04-25T07:47:58.974Z,99478.92
2023-04-25T07:51:27.288Z,99478.39
2023-04-25T07:54:55.036Z,99479.00
2023-04-25T07:58:28.399Z,99478.11
2023-04-25T08:01:58.799Z,99479.38
2023-04-25T08:05:26.581Z,99480.05
2023-04-25T08:08:59.490Z,99480.36
2023-04-25T08:12:31.860Z,99486.72
2023-04-25T08:15:59.558Z,99488.37
2023-04-25T08:19:26.986Z,99489.70
2023-04-25T08:22:54.027Z,99495.14
2023-04-25T08:26:33.715Z,99500.67
2023-04-25T08:30:00.865Z,99501.62
2023-04-25T08:33:28.585Z,99507.29
2023-04-25T08:37:14.212Z,99510.95
2023-04-25T08:40:51.634Z,99510.16
2023-04-25T08:44:19.452Z,99509.23
2023-04-25T08:47:50.133Z,99510.61
2023-04-25T08:51:24.154Z,99507.15
2023-04-25T08:54:53.629Z,99507.23
2023-04-25T08:58:23.099Z,99507.71
2023-04-25T09:01:52.122Z,99506.85
2023-04-25T09:05:21.840Z,99509.59
2023-04-25T09:08:54.325Z,99511.14
2023-04-25T09:12:22.276Z,99514.34
2023-04-25T09:15:54.548Z,99522.64
2023-04-25T09:19:40.972Z,99526.59
2023-04-25T09:23:16.832Z,99526.17
2023-04-25T09:26:45.059Z,99530.47
2023-04-25T09:30:14.161Z,99531.41
2023-04-25T09:34:05.166Z,99535.42
2023-04-25T09:37:45.116Z,99538.13
2023-04-25T09:41:34.024Z,99534.73
2023-04-25T09:45:05.140Z,99540.73
2023-04-25T09:48:34.700Z,99540.77
2023-04-25T09:52:05.740Z,99542.33
2023-04-25T09:55:45.395Z,99545.86
2023-04-25T09:59:13.990Z,99548.33
2023-04-25T10:02:45.066Z,99552.23
2023-04-25T10:06:22.708Z,99552.00
2023-04-25T10:09:54.709Z,99552.73
2023-04-25T10:13:22.038Z,99554.91
2023-04-25T10:16:49.956Z,99554.35
2023-04-25T10:20:17.362Z,99558.75
2023-04-25T10:23:44.989Z,99561.71
2023-04-25T10:27:12.224Z,99563.02
2023-04-25T10:30:40.158Z,99561.58
2023-04-25T10:34:12.195Z,99561.30
2023-04-25T10:37:42.204Z,99560.84
2023-04-25T10:41:15.307Z,99564.78
2023-04-25T10:44:42.948Z,99566.83
2023-04-25T10:48:29.442Z,99567.32
2023-04-25T10:52:27.524Z,99565.64
2023-04-25T10:55:59.886Z,99570.14
2023-04-25T10:59:30.677Z,99567.48
2023-04-25T11:03:02.425Z,99568.92
2023-04-25T11:06:39.123Z,99567.62
2023-04-25T11:10:09.988Z,99560.91
2023-04-25T11:13:38.133Z,99563.17
2023-04-25T11:17:05.899Z,99564.63
2023-04-25T11:20:34.691Z,99571.77
2023-04-25T11:24:04.169Z,99574.82
2023-04-25T11:27:31.145Z,99575.80
2023-04-25T11:30:58.284Z,99579.09
2023-04-25T11:34:25.915Z,99579.31
2023-04-25T11:37:53.929Z,99577.85
2023-04-25T11:41:23.587Z,99572.17
2023-04-25T11:44:50.441Z,99573.20
2023-04-25T11:48:17.298Z,99579.86
2023-04-25T11:51:45.085Z,99583.69
2023-04-25T11:55:15.593Z,99582.57
2023-04-25T11:59:00.173Z,99585.65
2023-04-25T12:02:30.843Z,99590.45
2023-04-25T12:06:05.041Z,99592.61
2023-04-25T12:09:36.154Z,99589.91
2023-04-25T12:13:04.090Z,99589.36
2023-04-25T12:16:31.636Z,99591.41
2023-04-25T12:19:58.371Z,99591.33
2023-04-25T12:23:31.528Z,99590.93
2023-04-25T12:27:02.091Z,99592.73
2023-04-25T12:30:29.911Z,99596.34
2023-04-25T12:33:56.861Z,99594.23
2023-04-25T12:37:24.593Z,99586.04
2023-04-25T12:40:51.984Z,99585.21
2023-04-25T12:44:19.389Z,99586.64
2023-04-25T12:47:46.346Z,99592.02
2023-04-25T12:51:13.637Z,99590.66
2023-04-25T12:54:40.324Z,99586.86
2023-04-25T12:58:07.185Z,99588.24
2023-04-25T13:01:35.706Z,99582.77
2023-04-25T13:05:07.201Z,99583.23
2023-04-25T13:08:34.597Z,99582.36
2023-04-25T13:12:02.607Z,99580.69
2023-04-25T13:15:33.989Z,99582.89
2023-04-25T13:19:02.233Z,99583.33
2023-04-25T13:22:30.796Z,99588.45
2023-04-25T13:26:00.301Z,99592.92
2023-04-25T13:29:30.084Z,99600.52
2023-04-25T13:33:04.459Z,99601.75
2023-04-25T13:36:30.910Z,99596.60
2023-04-25T13:39:57.939Z,99597.47
2023-04-25T13:43:25.413Z,99598.35
2023-04-25T13:46:53.235Z,99594.81
2023-04-25T13:50:22.465Z,99597.86
2023-04-25T13:53:54.007Z,99600.01
2023-04-25T13:57:22.765Z,99599.64
2023-04-25T14:00:49.089Z,99602.09
2023-04-25T14:04:16.156Z,99601.69
2023-04-25T14:07:43.101Z,99605.45
2023-04-25T14:11:10.298Z,99607.32
2023-04-25T14:14:37.528Z,99605.13
2023-04-25T14:18:04.856Z,99600.27
2023-04-25T14:21:32.942Z,99602.64
2023-04-25T14:25:00.738Z,99607.91
2023-04-25T14:28:28.018Z,99624.77
2023-04-25T14:31:56.211Z,99636.94
2023-04-25T14:35:23.378Z,99636.55
2023-04-25T14:38:50.125Z,99641.63
2023-04-25T14:42:16.836Z,99648.41
2023-04-25T14:45:43.739Z,99648.05
2023-04-25T14:49:10.579Z,99647.78
2023-04-25T14:52:39.926Z,99654.14
2023-04-25T14:56:09.246Z,99654.75
2023-04-25T14:59:36.681Z,99655.52
2023-04-25T15:03:03.923Z,99661.98
2023-04-25T15:06:31.645Z,99666.66
2023-04-25T15:09:59.477Z,99669.33
2023-04-25T15:13:27.050Z,99669.27
2023-04-25T15:16:53.956Z,99670.14
2023-04-25T15:20:21.652Z,99673.53
2023-04-25T15:23:49.712Z,99669.52
2023-04-25T15:27:18.323Z,99671.34
2023-04-25T15:30:46.659Z,99673.66
2023-04-25T15:34:17.690Z,99673.61
2023-04-25T15:37:44.725Z,99676.65
2023-04-25T15:41:12.501Z,99675.98
2023-04-25T15:44:39.414Z,99674.77
2023-04-25T15:48:06.773Z,99672.09
2023-04-25T15:51:35.613Z,99671.55
2023-04-25T15:55:02.232Z,99668.84
2023-04-25T15:58:31.456Z,99670.91
2023-04-25T16:01:59.585Z,99672.95
2023-04-25T16:05:26.233Z,99672.23
2023-04-25T16:08:57.529Z,99669.24
2023-04-25T16:12:25.878Z,99668.92
2023-04-25T16:15:53.308Z,99672.08
2023-04-25T16:19:20.335Z,99673.45
2023-04-25T16:22:48.359Z,99680.05
2023-04-25T16:26:15.321Z,99682.45
2023-04-25T16:29:44.541Z,99688.30
2023-04-25T16:33:12.003Z,99685.56
2023-04-25T16:36:38.920Z,99689.64
2023-04-25T16:40:09.131Z,99687.75
2023-04-25T16:43:36.480Z,99688.20
2023-04-25T16:47:03.234Z,99690.39
2023-04-25T16:50:31.346Z,99694.18
2023-04-25T16:53:58.713Z,99692.05
2023-04-25T16:57:26.334Z,99693.22
2023-04-25T17:00:54.055Z,99695.94
2023-04-25T17:04:22.172Z,99695.68
2023-04-25T17:07:52.740Z,99698.12
2023-04-25T17:11:20.388Z,99703.77
2023-04-25T17:14:48.039Z,99705.73
2023-04-25T17:18:14.977Z,99707.39
2023-04-25T17:21:44.104Z,99715.39
2023-04-25T17:25:13.931Z,99722.12
2023-04-25T17:28:42.948Z,99730.02
2023-04-25T17:32:10.609Z,99729.60
2023-04-25T17:35:40.690Z,99736.55
2023-04-25T17:39:08.960Z,99739.95
2023-04-25T17:42:36.638Z,99742.80
2023-04-25T17:46:04.967Z,99749.52
2023-04-25T17:49:33.980Z,99754.40
2023-04-25T17:53:03.446Z,99757.35
2023-04-25T17:56:30.803Z,99760.09
2023-04-25T18:00:06.621Z,99769.23
2023-04-25T18:03:40.668Z,99778.59
2023-04-25T18:07:08.812Z,99786.92
2023-04-25T18:10:42.376Z,99793.59
2023-04-25T18:14:14.779Z,99790.95
2023-04-25T18:17:41.734Z,99791.97
2023-04-25T18:21:15.051Z,99794.33
2023-04-25T18:24:48.127Z,99801.64
2023-04-25T18:28:16.189Z,99803.77
2023-04-25T18:31:50.297Z,99810.23
2023-04-25T18:35:20.173Z,99809.23
2023-04-25T18:38:51.398Z,99815.37
2023-04-25T18:42:22.517Z,99819.50
2023-04-25T18:45:50.624Z,99829.61
2023-04-25T18:49:20.337Z,99832.38
2023-04-25T18:52:47.753Z,99839.77
2023-04-25T18:56:21.846Z,99847.64
2023-04-25T18:59:49.968Z,99850.96
2023-04-25T19:03:17.616Z,99851.19
2023-04-25T19:06:46.926Z,99849.24
2023-04-25T19:10:15.560Z,99854.95
2023-04-25T19:13:44.220Z,99857.13
2023-04-25T19:17:15.224Z,99860.20
2023-04-25T19:20:43.935Z,99862.35
2023-04-25T19:24:12.861Z,99864.20
2023-04-25T19:27:39.730Z,99868.16
2023-04-25T19:31:10.284Z,99871.92
2023-04-25T19:34:39.117Z,99866.74
2023-04-25T19:38:06.439Z,99873.42
2023-04-25T19:41:35.566Z,99876.56
2023-04-25T19:45:04.318Z,99882.56
2023-04-25T19:48:39.386Z,99882.44
2023-04-25T19:52:15.240Z,99882.77
2023-04-25T19:55:42.626Z,99880.52
2023-04-25T19:59:14.280Z,99884.21
2023-04-25T20:02:44.251Z,99889.52
2023-04-25T20:06:12.135Z,99891.89
2023-04-25T20:09:44.955Z,99885.52
2023-04-25T20:13:12.453Z,99884.36
2023-04-25T20:16:39.188Z,99880.54
2023-04-25T20:20:06.973Z,99889.65
2023-04-25T20:23:35.232Z,99891.33
2023-04-25T20:27:03.478Z,99895.73
2023-04-25T20:30:34.759Z,99898.29
2023-04-25T20:34:03.927Z,99904.27
2023-04-25T20:37:33.434Z,99902.26
2023-04-25T20:41:00.678Z,99902.92
2023-04-25T20:44:30.854Z,99905.64
2023-04-25T20:48:02.837Z,99912.18
2023-04-25T20:51:30.592Z,99911.55
2023-04-25T20:54:59.626Z,99909.38
2023-04-25T20:58:29.393Z,99905.95
2023-04-25T21:01:59.891Z,99913.89
2023-04-25T21:05:29.432Z,99915.34
2023-04-25T21:08:56.201Z,99915.71
2023-04-25T21:12:22.929Z,99913.23
2023-04-25T21:15:49.734Z,99913.50
2023-04-25T21:19:17.961Z,99914.59
2023-04-25T21:22:54.182Z,99915.70
2023-04-25T21:26:26.607Z,99914.07
2023-04-25T21:29:54.436Z,99913.48
2023-04-25T21:33:21.549Z,99911.31
2023-04-25T21:36:49.009Z,99915.79
2023-04-25T21:40:17.371Z,99911.06
2023-04-25T21:43:45.427Z,99908.38
2023-04-25T21:47:12.086Z,99909.38
2023-04-25T21:50:39.927Z,99909.00
2023-04-25T21:54:07.018Z,99910.70
2023-04-25T21:57:34.961Z,99911.99
2023-04-25T22:01:02.253Z,99906.52
2023-04-25T22:04:29.975Z,99907.84
2023-04-25T22:07:58.816Z,99910.73
2023-04-25T22:11:29.226Z,99912.85
2023-04-25T22:15:00.203Z,99913.77
2023-04-25T22:18:27.256Z,99916.98
2023-04-25T22:21:57.354Z,99919.89
2023-04-25T22:25:24.921Z,99922.76
2023-04-25T22:28:52.878Z,99918.89
2023-04-25T22:32:20.739Z,99922.00
2023-04-25T22:35:47.819Z,99921.90
2023-04-25T22:39:17.021Z,99919.35
2023-04-25T22:42:45.340Z,99919.87
2023-04-25T22:46:19.484Z,99919.14
2023-04-25T22:49:46.991Z,99921.79
2023-04-25T22:53:14.978Z,99922.35
2023-04-25T22:56:43.141Z,99917.57
2023-04-25T23:00:16.668Z,99917.42
2023-04-25T23:03:45.308Z,99916.48
2023-04-25T23:07:13.740Z,99915.92
2023-04-25T23:10:41.361Z,99918.60
2023-04-25T23:14:09.084Z,99918.02
2023-04-25T23:17:37.409Z,99921.88
2023-04-25T23:21:04.593Z,99919.09
2023-04-25T23:24:33.573Z,99923.13
2023-04-25T23:28:00.493Z,99922.57
2023-04-25T23:31:27.623Z,99925.95
2023-04-25T23:34:55.377Z,99928.31
2023-04-25T23:38:22.781Z,99926.64
2023-04-25T23:41:49.873Z,99924.63
2023-04-25T23:45:17.313Z,99918.58
2023-04-25T23:48:43.760Z,99921.89
2023-04-25T23:52:11.195Z,99925.16
2023-04-25T23:55:38.602Z,99929.85
2023-04-25T23:59:07.465Z,99926.46
